Disclaimer

Please do not use the information listed here in-flight or in-navigation, as they are not provided to us by the airports but are provided by volunteers, so they might be outdated.

Search


Regions


Airport information page

Radio informations:
Tower (TWR) - 130.7 MHz
Ground (GND) - 121.65 MHz
Automatic Terminal Information Service (ATIS) - 132.75 MHz
Approach (APP) - 129.55 MHz

Airport informations:
Latitude: 56° 04' 58.00" N
Longitude: 013° 12' 45.00" E
Elevation: 140 feet - 43 meters
Operating hours: Remarks
Operating agency: Civil government, landing fees and diplomatic clearance may be required
Timezone: UTC+1(+2DT) - Last Sunday in March to last Sunday in October
Fuel: N/A

Runway information:
11R/29L - 7449 x 131 feet< - >2270 x 40 meters
11L/29R - 6596 x 131 feet< - >2010 x 40 meters
12R/30L - 2590 x 82 feet< - >789 x 25 meters
12L/30R - 2588 x 82 feet< - >789 x 25 meters

Recent METARs:
ESTL 160620Z AUTO 08005KT 2900 BR NCD 03/03 Q1035
ESTL 160650Z AUTO 09005KT 2600 BR NCD 03/03 Q1036
ESTL 160720Z 11005KT 6000 BR NSC 03/03 Q1036

Airport on the map: